Terminal Aerodrome Forecast
Issued by NWS Knoxville/Tri Cities, TN

Home | Current Version | Previous Version | Text Only | Print | Product List | Glossary On
Versions: 1 2 3 4 5 6 7 8 9 10 11 12 13 14 15
000
FTUS44 KMRX 241728
TAFTYS
TAF
KTYS 241728Z 2418/2518 VRB04KT P6SM SKC
     FM251000 00000KT 5SM BR SCT002
     FM251300 VRB03KT P6SM SCT100 BKN250
     FM251600 24007KT P6SM OVC120=

USA.gov is the U.S. government's official web portal to all federal, state and local government web resources and services.